CheckWX is a tool to help pilots better visualize weather data.  It is not intended as a substitute for an official pre-flight weather briefing.

13:55:48 UTC

KHVR METAR
Havre City-County Airport
Havre, Montana, USA
Current

1 hour ago

KHVR 261253Z AUTO 06011KT 10SM SCT080 OVC095 06/M02 A2989 RMK AO2 SLP129 T00561022
Observed
Apr-26 @ 12:53 UTC
Wind
  • 060° at 11 KTS
Visibility
10 SM
Flight Rules
VFR
Cloud Levels
  • Scattered at 8,000' AGL
  • Overcast at 9,500' AGL
Temperature
C / 43°F
Dewpoint
-2°C / 28°F
Humidity
57%
Altimeter
29.89" Hg
Pressure
1012.22 hPa
Previous

2 hours ago

KHVR 261153Z AUTO 04008KT 10SM OVC100 05/M03 A2991 RMK AO2 SLP136 T00501028 10072 20050 56015
Observed
Apr-26 @ 11:53 UTC
Wind
  • 040° at 8 KTS
Visibility
10 SM
Flight Rules
VFR
Cloud Levels
  • Overcast at 10,000' AGL
Temperature
C / 41°F
Dewpoint
-3°C / 27°F
Humidity
57%
Altimeter
29.91" Hg
Pressure
1012.92 hPa
Previous

3 hours ago

KHVR 261053Z AUTO 06010KT 10SM OVC110 05/M03 A2992 RMK AO2 SLP139 T00501033
Observed
Apr-26 @ 10:53 UTC
Wind
  • 060° at 10 KTS
Visibility
10 SM
Flight Rules
VFR
Cloud Levels
  • Overcast at 11,000' AGL
Temperature
C / 41°F
Dewpoint
-3°C / 27°F
Humidity
57%
Altimeter
29.92" Hg
Pressure
1013.22 hPa